Time;durP1;ratioP1;P1;durP2;ratioP2;P2;SDS_P1;SDS_P2;PMS_P1;PMS_P2;Temp;Humidity;BMP_temperature;BMP_pressure;BME280_temperature;BME280_humidity;BME280_pressure;Samples;Min_cycle;Max_cycle;Signal;HPM_P1;HPM_P2
2023/05/16 00:01:09;;;;;;;5.13;3.25;;;10.90;99.90;;;;;;5094676;28;20224;-67
2023/05/16 00:03:38;;;;;;;6.60;3.60;;;10.90;99.90;;;;;;5095021;28;20185;-67
2023/05/16 00:06:05;;;;;;;4.80;3.35;;;10.90;99.90;;;;;;5094459;28;20267;-68
2023/05/16 00:08:33;;;;;;;5.07;2.67;;;10.90;99.90;;;;;;5095074;28;20196;-67
2023/05/16 00:11:00;;;;;;;5.05;3.15;;;10.80;99.90;;;;;;5094989;28;20282;-68
2023/05/16 00:13:29;;;;;;;4.47;3.10;;;10.80;99.90;;;;;;5095087;28;20192;-67
2023/05/16 00:16:01;;;;;;;4.80;3.55;;;10.80;99.90;;;;;;5094398;28;20223;-67
2023/05/16 00:18:31;;;;;;;5.18;3.90;;;10.70;99.90;;;;;;5095112;28;20280;-67
2023/05/16 00:21:00;;;;;;;7.65;3.65;;;10.70;99.90;;;;;;5093869;28;20302;-67
2023/05/16 00:23:27;;;;;;;4.93;3.88;;;10.60;99.90;;;;;;5094609;28;20261;-68
2023/05/16 00:25:55;;;;;;;3.53;2.95;;;10.50;99.90;;;;;;5094856;28;20193;-67
2023/05/16 00:28:22;;;;;;;4.72;3.42;;;10.50;99.90;;;;;;5094708;28;20197;-67
2023/05/16 00:30:50;;;;;;;3.67;3.13;;;10.40;99.90;;;;;;5094389;28;20193;-67
2023/05/16 00:33:18;;;;;;;3.58;3.10;;;10.40;99.90;;;;;;5094210;28;20272;-67
2023/05/16 00:35:46;;;;;;;4.50;3.00;;;10.30;99.90;;;;;;5093943;28;20264;-67
2023/05/16 00:38:16;;;;;;;4.55;3.60;;;10.30;99.90;;;;;;5094180;28;20228;-67
2023/05/16 00:40:43;;;;;;;6.35;4.20;;;10.20;99.90;;;;;;5093902;28;20209;-67
2023/05/16 00:43:11;;;;;;;4.38;3.50;;;10.20;99.90;;;;;;5093866;28;20222;-67
2023/05/16 00:45:38;;;;;;;5.03;3.85;;;10.10;99.90;;;;;;5094255;28;20189;-67
2023/05/16 00:48:06;;;;;;;5.15;3.65;;;10.10;99.90;;;;;;5094380;28;20185;-67
2023/05/16 00:50:37;;;;;;;5.05;4.32;;;10.00;99.90;;;;;;5093633;28;20201;-67
2023/05/16 00:53:05;;;;;;;6.57;4.55;;;10.00;99.90;;;;;;5093849;28;20655;-67
2023/05/16 00:55:34;;;;;;;6.68;4.47;;;10.00;99.90;;;;;;5093561;28;20197;-67
2023/05/16 00:58:02;;;;;;;6.05;4.18;;;10.10;99.90;;;;;;5094074;28;20603;-67
2023/05/16 01:00:29;;;;;;;5.78;4.53;;;10.10;99.90;;;;;;5093496;28;20212;-67
2023/05/16 01:02:57;;;;;;;5.65;3.95;;;10.10;99.90;;;;;;5094008;28;20231;-67
2023/05/16 01:05:25;;;;;;;8.25;4.63;;;10.10;99.90;;;;;;5093466;28;20200;-67
2023/05/16 01:07:52;;;;;;;6.07;4.10;;;10.10;99.90;;;;;;5093972;28;20189;-67
2023/05/16 01:10:19;;;;;;;6.97;4.47;;;10.20;99.90;;;;;;5093919;28;20280;-67
2023/05/16 01:13:07;;;;;;;6.10;4.13;;;10.20;99.90;;;;;;5093388;28;20185;-67
2023/05/16 01:15:44;;;;;;;4.75;3.60;;;10.20;99.90;;;;;;5093506;28;20220;-67
2023/05/16 01:18:22;;;;;;;4.60;3.92;;;10.20;99.90;;;;;;5093655;28;20189;-67
2023/05/16 01:21:00;;;;;;;7.00;4.55;;;10.10;99.90;;;;;;5072661;28;20316;-67
2023/05/16 01:23:43;;;;;;;5.35;3.78;;;10.10;99.90;;;;;;5074383;28;20197;-67
2023/05/16 01:26:20;;;;;;;5.65;3.83;;;10.10;99.90;;;;;;5093683;28;20193;-67
2023/05/16 01:28:49;;;;;;;5.55;4.15;;;10.10;99.90;;;;;;5093557;28;20540;-67
2023/05/16 01:31:17;;;;;;;7.07;4.50;;;10.10;99.90;;;;;;5093273;28;20586;-67
2023/05/16 01:33:44;;;;;;;5.80;3.92;;;10.10;99.90;;;;;;5092784;28;20189;-67
2023/05/16 01:36:19;;;;;;;5.78;3.70;;;10.10;99.90;;;;;;5093197;28;20193;-67
2023/05/16 01:39:01;;;;;;;4.55;3.45;;;10.10;99.90;;;;;;5092882;28;20183;-67
2023/05/16 01:41:40;;;;;;;5.10;3.92;;;10.10;99.90;;;;;;5093067;28;20212;-67
2023/05/16 01:44:17;;;;;;;7.60;4.10;;;10.10;99.90;;;;;;5092529;28;20240;-67
2023/05/16 01:46:47;;;;;;;5.35;3.55;;;10.10;99.90;;;;;;5092042;28;20181;-67
2023/05/16 01:49:20;;;;;;;8.00;3.90;;;10.10;99.90;;;;;;5090119;28;20189;-67
2023/05/16 01:51:53;;;;;;;7.70;4.03;;;10.10;99.90;;;;;;5091273;28;20185;-67
2023/05/16 01:54:21;;;;;;;5.20;3.78;;;10.10;99.90;;;;;;5092713;28;20200;-67
2023/05/16 01:56:53;;;;;;;6.72;4.13;;;10.10;99.90;;;;;;5091612;28;20188;-67
2023/05/16 01:59:22;;;;;;;4.75;3.53;;;10.10;99.90;;;;;;5092660;28;20193;-67
2023/05/16 02:01:53;;;;;;;8.55;3.83;;;10.10;99.90;;;;;;5092995;28;20572;-67
2023/05/16 02:04:21;;;;;;;5.10;3.60;;;10.10;99.90;;;;;;5092667;28;20197;-67
2023/05/16 02:06:49;;;;;;;4.40;3.75;;;10.10;99.90;;;;;;5092815;28;20279;-67
2023/05/16 02:09:17;;;;;;;5.55;4.22;;;10.10;99.90;;;;;;5092681;28;20200;-67
2023/05/16 02:11:45;;;;;;;4.82;3.50;;;10.10;99.90;;;;;;5091621;28;20533;-67
2023/05/16 02:14:14;;;;;;;8.57;3.50;;;10.00;99.90;;;;;;5092516;28;20279;-67
2023/05/16 02:16:43;;;;;;;4.28;3.10;;;10.00;99.90;;;;;;5092445;28;20189;-67
2023/05/16 02:19:13;;;;;;;4.15;3.00;;;10.00;99.90;;;;;;5092744;28;20254;-67
2023/05/16 02:21:41;;;;;;;5.03;3.45;;;10.00;99.90;;;;;;5092015;28;20221;-67
2023/05/16 02:24:09;;;;;;;5.60;3.70;;;10.10;99.90;;;;;;5092627;28;20196;-67
2023/05/16 02:26:36;;;;;;;4.40;3.60;;;10.10;99.90;;;;;;5092457;28;20193;-67
2023/05/16 02:29:03;;;;;;;4.50;3.25;;;10.10;99.90;;;;;;5092226;28;20177;-67
2023/05/16 02:31:34;;;;;;;3.78;2.70;;;10.10;99.90;;;;;;5092602;28;20185;-67
2023/05/16 02:34:04;;;;;;;3.80;3.03;;;10.10;99.90;;;;;;5096500;28;20192;-67
2023/05/16 02:36:33;;;;;;;5.55;4.10;;;10.10;99.90;;;;;;5096924;28;20650;-67
2023/05/16 02:39:00;;;;;;;5.15;3.40;;;10.10;99.90;;;;;;5096403;28;20185;-67
2023/05/16 02:41:28;;;;;;;4.50;3.40;;;10.20;99.90;;;;;;5096249;28;20216;-67
2023/05/16 02:43:55;;;;;;;5.15;3.80;;;10.20;99.90;;;;;;5096205;28;20196;-67
2023/05/16 02:46:24;;;;;;;4.45;3.53;;;10.20;99.90;;;;;;5096647;28;20197;-66
2023/05/16 02:48:53;;;;;;;5.03;3.60;;;10.20;99.90;;;;;;5096225;28;20215;-67
2023/05/16 02:51:23;;;;;;;5.68;3.10;;;10.20;99.90;;;;;;5096376;28;20231;-67
2023/05/16 02:53:51;;;;;;;4.40;3.50;;;10.30;99.90;;;;;;5096198;28;20287;-67
2023/05/16 02:56:20;;;;;;;6.20;3.30;;;10.30;99.90;;;;;;5096334;28;20663;-67
2023/05/16 02:58:48;;;;;;;6.25;4.07;;;10.30;99.90;;;;;;5096092;28;20669;-67
2023/05/16 03:01:17;;;;;;;4.75;3.90;;;10.30;99.90;;;;;;5096331;28;20240;-67
2023/05/16 03:03:44;;;;;;;4.40;3.60;;;10.30;99.90;;;;;;5095296;28;20200;-67
2023/05/16 03:06:13;;;;;;;4.50;3.90;;;10.30;99.90;;;;;;5096400;28;20275;-67
2023/05/16 03:08:40;;;;;;;5.50;3.63;;;10.30;99.90;;;;;;5096409;28;20299;-67
2023/05/16 03:11:08;;;;;;;4.55;3.22;;;10.30;99.90;;;;;;5096372;28;20761;-67
2023/05/16 03:13:35;;;;;;;4.05;3.50;;;10.30;99.90;;;;;;5095660;28;20601;-67
2023/05/16 03:16:03;;;;;;;5.53;4.28;;;10.20;99.90;;;;;;5095845;28;20217;-67
2023/05/16 03:18:30;;;;;;;4.18;3.10;;;10.20;99.90;;;;;;5095464;28;20643;-67
2023/05/16 03:21:01;;;;;;;4.30;2.95;;;10.20;99.90;;;;;;5095907;28;20679;-67
2023/05/16 03:23:30;;;;;;;5.93;3.20;;;10.20;99.90;;;;;;5095689;28;20189;-67
2023/05/16 03:25:58;;;;;;;6.32;4.30;;;10.10;99.90;;;;;;5095976;28;20189;-67
2023/05/16 03:28:25;;;;;;;6.45;4.85;;;10.10;99.90;;;;;;5095600;28;20715;-67
2023/05/16 03:30:57;;;;;;;5.93;4.53;;;10.10;99.90;;;;;;5095881;28;20239;-67
2023/05/16 03:33:24;;;;;;;6.38;4.93;;;10.10;99.90;;;;;;5095292;28;20189;-67
2023/05/16 03:35:52;;;;;;;5.90;3.97;;;10.10;99.90;;;;;;5095390;28;20193;-67
2023/05/16 03:38:20;;;;;;;6.40;5.18;;;10.10;99.90;;;;;;5094913;28;20200;-67
2023/05/16 03:40:50;;;;;;;5.40;3.67;;;10.00;99.90;;;;;;5095293;28;20188;-67
2023/05/16 03:43:19;;;;;;;4.15;3.13;;;10.10;99.90;;;;;;5094710;28;20644;-67
2023/05/16 03:45:46;;;;;;;5.03;4.35;;;10.00;99.90;;;;;;5095254;28;20275;-67
2023/05/16 03:48:13;;;;;;;4.85;3.72;;;10.10;99.90;;;;;;5095265;28;20192;-67
2023/05/16 03:50:41;;;;;;;5.45;4.10;;;10.10;99.90;;;;;;5095370;28;20655;-67
2023/05/16 03:53:09;;;;;;;7.40;3.47;;;10.10;99.90;;;;;;5094569;28;20254;-67
2023/05/16 03:55:36;;;;;;;4.25;3.47;;;10.10;99.90;;;;;;5095192;28;20185;-67
2023/05/16 03:58:05;;;;;;;4.18;3.58;;;10.10;99.90;;;;;;5094360;28;20185;-67
2023/05/16 04:00:33;;;;;;;6.72;4.20;;;10.10;99.90;;;;;;5095416;28;20252;-67
2023/05/16 04:03:01;;;;;;;5.95;3.60;;;10.10;99.90;;;;;;5094981;28;20240;-67
2023/05/16 04:05:28;;;;;;;4.80;3.30;;;10.10;99.90;;;;;;5095171;28;20192;-67
2023/05/16 04:07:57;;;;;;;4.50;3.65;;;10.00;99.90;;;;;;5094064;28;20230;-67
2023/05/16 04:10:24;;;;;;;4.95;3.67;;;10.10;99.90;;;;;;5094935;28;20196;-68
2023/05/16 04:12:52;;;;;;;5.15;4.38;;;10.10;99.90;;;;;;5094310;28;20196;-67
2023/05/16 04:15:20;;;;;;;3.75;3.05;;;10.10;99.90;;;;;;5095191;28;20308;-67
2023/05/16 04:17:48;;;;;;;5.13;3.90;;;10.10;99.90;;;;;;5094205;28;20181;-67
2023/05/16 04:20:15;;;;;;;3.78;3.20;;;10.20;99.90;;;;;;5094781;28;20185;-67
2023/05/16 04:22:43;;;;;;;4.28;3.40;;;10.20;99.90;;;;;;5094435;28;20220;-67
2023/05/16 04:25:11;;;;;;;3.97;2.80;;;10.30;99.90;;;;;;5094779;28;20693;-68
2023/05/16 04:27:38;;;;;;;4.20;3.25;;;10.30;99.90;;;;;;5094377;28;20547;-67
2023/05/16 04:30:06;;;;;;;4.25;3.30;;;10.40;99.90;;;;;;5094475;28;20339;-68
2023/05/16 04:32:35;;;;;;;5.00;3.95;;;10.50;99.90;;;;;;5094213;28;20196;-67
2023/05/16 04:35:04;;;;;;;4.72;3.85;;;10.50;99.90;;;;;;5094779;28;20250;-67
2023/05/16 04:37:31;;;;;;;6.28;4.32;;;10.60;99.90;;;;;;5094363;28;20193;-67
2023/05/16 04:39:59;;;;;;;6.75;4.25;;;10.60;99.90;;;;;;5094009;28;20242;-67
2023/05/16 04:42:26;;;;;;;6.50;4.90;;;10.70;99.90;;;;;;5093958;28;20266;-67
2023/05/16 04:44:53;;;;;;;10.43;8.52;;;10.70;99.90;;;;;;5094368;28;20185;-67
2023/05/16 04:47:22;;;;;;;5.50;4.65;;;10.70;99.90;;;;;;5093924;28;20198;-67
2023/05/16 04:49:51;;;;;;;5.03;3.70;;;10.70;99.90;;;;;;5094022;28;20275;-67
2023/05/16 04:52:20;;;;;;;6.05;4.22;;;10.80;99.90;;;;;;5093958;28;20185;-67
2023/05/16 04:54:51;;;;;;;6.22;5.57;;;10.80;99.90;;;;;;5093268;28;20524;-68
2023/05/16 04:57:19;;;;;;;6.22;5.60;;;10.80;99.90;;;;;;5093737;28;20242;-67
2023/05/16 04:59:46;;;;;;;5.68;4.57;;;10.80;99.90;;;;;;5093685;28;20213;-67
2023/05/16 05:02:13;;;;;;;6.82;4.75;;;10.90;99.90;;;;;;5093560;28;20220;-67
2023/05/16 05:04:40;;;;;;;6.78;5.55;;;11.00;99.90;;;;;;5093862;28;20189;-68
2023/05/16 05:07:09;;;;;;;6.60;4.13;;;11.10;99.90;;;;;;5093411;28;20207;-67
2023/05/16 05:09:37;;;;;;;4.88;4.38;;;11.10;99.90;;;;;;5094066;28;20200;-68
2023/05/16 05:12:09;;;;;;;6.75;3.95;;;11.10;99.90;;;;;;5093964;28;20275;-67
2023/05/16 05:14:36;;;;;;;5.70;3.55;;;11.20;99.90;;;;;;5093374;28;20217;-66
2023/05/16 05:17:03;;;;;;;4.38;3.95;;;11.20;99.90;;;;;;5093875;28;20246;-67
2023/05/16 05:19:31;;;;;;;5.10;4.38;;;11.20;99.90;;;;;;5093399;28;20193;-67
2023/05/16 05:21:58;;;;;;;5.10;4.05;;;11.30;99.90;;;;;;5093652;28;20216;-67
2023/05/16 05:24:28;;;;;;;5.80;3.45;;;11.40;99.90;;;;;;5093265;28;20276;-67
2023/05/16 05:26:55;;;;;;;4.30;3.20;;;11.40;99.90;;;;;;5093745;28;20561;-67
2023/05/16 05:29:23;;;;;;;7.40;3.90;;;11.50;99.90;;;;;;5093394;28;20258;-67
2023/05/16 05:31:50;;;;;;;6.53;4.10;;;11.50;99.90;;;;;;5093473;28;20197;-67
2023/05/16 05:34:22;;;;;;;5.68;4.50;;;11.50;99.90;;;;;;5083685;28;20202;-67
2023/05/16 05:36:50;;;;;;;6.13;4.65;;;11.50;99.90;;;;;;5072502;28;20202;-67
2023/05/16 05:39:17;;;;;;;7.55;5.88;;;11.50;99.90;;;;;;5081837;28;20245;-67
2023/05/16 05:41:46;;;;;;;7.55;5.38;;;11.60;99.90;;;;;;5089744;28;20212;-67
2023/05/16 05:44:14;;;;;;;7.97;5.85;;;11.50;99.90;;;;;;5083808;28;20201;-67
2023/05/16 05:46:44;;;;;;;6.80;4.73;;;11.50;99.90;;;;;;5072183;28;20201;-67
2023/05/16 05:49:11;;;;;;;6.05;4.80;;;11.60;99.90;;;;;;5087345;28;20443;-67
2023/05/16 05:51:41;;;;;;;6.00;5.40;;;11.70;99.90;;;;;;5090269;28;20246;-67
2023/05/16 05:54:08;;;;;;;6.38;5.38;;;11.70;99.90;;;;;;5088816;28;20948;-67
2023/05/16 05:56:40;;;;;;;8.55;5.40;;;11.80;99.90;;;;;;5090283;28;20216;-67
2023/05/16 05:59:08;;;;;;;8.00;5.87;;;11.80;99.90;;;;;;5075485;28;20207;-67
2023/05/16 06:01:36;;;;;;;8.17;5.80;;;11.90;99.90;;;;;;5089795;28;20423;-67
2023/05/16 06:04:03;;;;;;;9.43;6.27;;;11.90;99.90;;;;;;5090120;28;20465;-67
2023/05/16 06:06:31;;;;;;;5.78;4.85;;;12.00;99.90;;;;;;5073431;28;20471;-67
2023/05/16 06:08:58;;;;;;;8.27;6.17;;;12.10;99.90;;;;;;5072268;28;20194;-67
2023/05/16 06:11:25;;;;;;;6.50;5.57;;;12.20;99.90;;;;;;5085278;28;20452;-67
2023/05/16 06:13:57;;;;;;;6.63;5.87;;;12.20;99.90;;;;;;5089494;28;20434;-67
2023/05/16 06:16:26;;;;;;;7.20;6.00;;;12.20;99.90;;;;;;5089169;28;20871;-67
2023/05/16 06:18:54;;;;;;;8.80;5.00;;;12.30;99.90;;;;;;5088920;28;20440;-68
2023/05/16 06:21:22;;;;;;;7.77;6.00;;;12.40;99.90;;;;;;5088762;28;20435;-67
2023/05/16 06:23:49;;;;;;;6.60;5.00;;;12.40;99.90;;;;;;5088697;28;20475;-67
2023/05/16 06:26:16;;;;;;;7.27;5.40;;;12.50;99.90;;;;;;5089388;28;20553;-67
2023/05/16 06:28:43;;;;;;;6.80;5.60;;;12.50;99.90;;;;;;5089551;28;20435;-67
2023/05/16 06:31:11;;;;;;;7.37;5.70;;;12.50;99.90;;;;;;5076710;28;20486;-67
2023/05/16 06:33:39;;;;;;;7.47;5.90;;;12.50;99.90;;;;;;5085343;28;20435;-67
2023/05/16 06:36:08;;;;;;;6.63;5.53;;;12.60;99.90;;;;;;5088908;28;20449;-67
2023/05/16 06:38:38;;;;;;;6.83;5.33;;;12.60;99.90;;;;;;5089322;28;20441;-67
2023/05/16 06:41:08;;;;;;;7.23;6.07;;;12.60;99.90;;;;;;5088539;28;20940;-67
2023/05/16 06:43:36;;;;;;;9.40;7.03;;;12.70;99.90;;;;;;5071512;28;20491;-68
2023/05/16 06:46:03;;;;;;;6.97;5.40;;;12.70;99.60;;;;;;5073678;28;20458;-67
2023/05/16 06:48:35;;;;;;;11.03;6.80;;;12.80;99.70;;;;;;5081807;28;20858;-67
2023/05/16 06:51:04;;;;;;;7.47;5.60;;;12.80;99.50;;;;;;5091669;28;20443;-68
2023/05/16 06:53:31;;;;;;;7.80;6.20;;;12.90;99.20;;;;;;5092224;28;20438;-67
2023/05/16 06:55:59;;;;;;;5.77;5.17;;;12.90;98.80;;;;;;5092630;28;20504;-67
2023/05/16 06:58:26;;;;;;;8.40;6.80;;;12.90;98.60;;;;;;5092444;28;20470;-69
2023/05/16 07:00:53;;;;;;;6.83;6.07;;;12.90;99.00;;;;;;5091358;28;20550;-68
2023/05/16 07:03:20;;;;;;;8.30;7.27;;;12.90;98.90;;;;;;5092643;28;20486;-67
2023/05/16 07:05:50;;;;;;;9.00;7.10;;;13.00;98.90;;;;;;5092120;28;20457;-67
2023/05/16 07:08:18;;;;;;;8.30;6.67;;;13.10;98.70;;;;;;5092024;28;20458;-67
2023/05/16 07:10:45;;;;;;;10.60;7.73;;;13.10;98.30;;;;;;5092168;28;20474;-67
2023/05/16 07:13:12;;;;;;;8.87;7.47;;;13.10;98.50;;;;;;5092342;28;20497;-67
2023/05/16 07:15:39;;;;;;;13.57;7.03;;;13.00;98.30;;;;;;5092084;28;20463;-68
2023/05/16 07:18:06;;;;;;;10.50;6.60;;;13.10;98.70;;;;;;5092807;28;20435;-67
2023/05/16 07:20:36;;;;;;;10.90;7.10;;;13.10;99.00;;;;;;5095967;28;21010;-67
2023/05/16 07:23:05;;;;;;;11.90;9.53;;;13.10;99.20;;;;;;5095384;28;20517;-68
2023/05/16 07:25:37;;;;;;;11.90;9.20;;;13.20;98.90;;;;;;5096024;28;20833;-67
2023/05/16 07:28:04;;;;;;;10.57;7.37;;;13.20;98.60;;;;;;5095955;28;20926;-68
2023/05/16 07:30:31;;;;;;;10.77;7.40;;;13.30;98.60;;;;;;5095773;28;20435;-68
2023/05/16 07:32:58;;;;;;;15.23;10.33;;;13.30;98.60;;;;;;5095606;28;20925;-68
2023/05/16 07:35:25;;;;;;;9.73;7.13;;;13.40;98.60;;;;;;5095406;28;20517;-68
2023/05/16 07:37:53;;;;;;;8.60;7.10;;;13.40;98.50;;;;;;5095397;28;20542;-68
2023/05/16 07:40:24;;;;;;;9.73;7.27;;;13.50;98.40;;;;;;5095802;28;20442;-68
2023/05/16 07:42:57;;;;;;;10.80;7.47;;;13.50;98.40;;;;;;5095699;28;20954;-68
2023/05/16 07:45:24;;;;;;;7.80;6.00;;;13.50;98.40;;;;;;5095434;28;20439;-68
2023/05/16 07:47:53;;;;;;;9.93;7.83;;;13.50;98.20;;;;;;5095796;28;20496;-68
2023/05/16 07:50:20;;;;;;;9.80;7.70;;;13.50;97.60;;;;;;5095354;28;20455;-68
2023/05/16 07:52:47;;;;;;;10.40;8.07;;;13.40;97.40;;;;;;5095413;28;20449;-68
2023/05/16 07:55:15;;;;;;;9.77;8.40;;;13.50;97.70;;;;;;5095076;28;20526;-68
2023/05/16 07:57:42;;;;;;;10.07;8.60;;;13.40;97.90;;;;;;5095636;28;20464;-68
2023/05/16 08:00:12;;;;;;;12.50;8.97;;;13.40;98.10;;;;;;5095264;28;20465;-68
2023/05/16 08:02:41;;;;;;;12.73;9.20;;;13.50;97.90;;;;;;5095309;28;20470;-67
2023/05/16 08:05:09;;;;;;;10.23;8.53;;;13.60;97.90;;;;;;5095180;28;20471;-67
2023/05/16 08:07:36;;;;;;;11.20;8.30;;;13.60;98.00;;;;;;5095010;28;20437;-68
2023/05/16 08:10:04;;;;;;;10.10;7.80;;;13.70;98.40;;;;;;5094936;28;20917;-67
2023/05/16 08:12:31;;;;;;;10.17;8.20;;;13.80;97.80;;;;;;5095182;28;20479;-67
2023/05/16 08:14:58;;;;;;;10.43;8.30;;;13.80;97.50;;;;;;5094839;28;20471;-67
2023/05/16 08:17:28;;;;;;;12.60;8.80;;;13.70;97.50;;;;;;5095130;28;20475;-67
2023/05/16 08:19:57;;;;;;;11.43;7.90;;;13.70;97.70;;;;;;5095352;28;20538;-67
2023/05/16 08:22:24;;;;;;;10.20;7.57;;;13.70;97.50;;;;;;5094739;28;20446;-67
2023/05/16 08:24:56;;;;;;;10.23;8.13;;;13.60;97.30;;;;;;5094803;28;20439;-67
2023/05/16 08:27:26;;;;;;;10.10;8.13;;;13.60;97.50;;;;;;5094605;28;20447;-68
2023/05/16 08:29:58;;;;;;;10.27;7.83;;;13.60;97.50;;;;;;5094708;28;20482;-67
2023/05/16 08:32:28;;;;;;;14.43;9.20;;;13.50;97.70;;;;;;5094799;28;20475;-67
2023/05/16 08:34:55;;;;;;;11.90;9.00;;;13.40;97.90;;;;;;5094988;28;20443;-67
2023/05/16 08:37:22;;;;;;;12.37;9.57;;;13.40;98.20;;;;;;5094532;28;20435;-67
2023/05/16 08:39:49;;;;;;;10.40;9.27;;;13.30;98.10;;;;;;5094667;28;20442;-67
2023/05/16 08:42:16;;;;;;;13.20;10.03;;;13.30;98.00;;;;;;5094028;28;21002;-67
2023/05/16 08:44:44;;;;;;;9.30;8.33;;;13.20;98.30;;;;;;5094504;28;21028;-67
2023/05/16 08:47:13;;;;;;;10.60;8.90;;;13.20;98.70;;;;;;5094150;28;20435;-66
2023/05/16 08:49:44;;;;;;;12.20;9.33;;;13.20;99.20;;;;;;5094332;28;20942;-67
2023/05/16 08:52:14;;;;;;;11.70;9.80;;;13.20;99.50;;;;;;5094246;28;20485;-67
2023/05/16 08:54:44;;;;;;;10.87;8.87;;;13.30;99.90;;;;;;5093962;28;20431;-67
2023/05/16 08:57:11;;;;;;;12.87;9.00;;;13.40;99.90;;;;;;5093966;28;20435;-67
2023/05/16 08:59:40;;;;;;;11.50;9.60;;;13.50;99.90;;;;;;5094248;28;20470;-67
2023/05/16 09:02:08;;;;;;;13.37;9.90;;;13.60;99.90;;;;;;5094057;28;20489;-67
2023/05/16 09:04:40;;;;;;;12.77;9.63;;;13.60;99.90;;;;;;5093819;28;20514;-67
2023/05/16 09:07:08;;;;;;;13.13;10.03;;;13.70;99.90;;;;;;5093892;28;20533;-67
2023/05/16 09:09:36;;;;;;;14.53;11.47;;;13.70;99.90;;;;;;5094071;28;20431;-67
2023/05/16 09:12:03;;;;;;;14.60;11.07;;;13.80;99.90;;;;;;5093767;28;20450;-67
2023/05/16 09:14:39;;;;;;;13.37;11.93;;;13.80;99.90;;;;;;5093554;28;20462;-67
2023/05/16 09:17:07;;;;;;;13.27;11.17;;;13.90;99.90;;;;;;5093999;28;20466;-67
2023/05/16 09:19:39;;;;;;;14.80;12.23;;;14.00;99.90;;;;;;5093841;28;20437;-67
2023/05/16 09:22:09;;;;;;;12.70;11.07;;;14.10;99.90;;;;;;5093490;28;20892;-68
2023/05/16 09:24:40;;;;;;;12.13;10.93;;;14.30;99.90;;;;;;5093749;28;20827;-67
2023/05/16 09:27:09;;;;;;;14.47;11.70;;;14.40;99.80;;;;;;5093342;28;20495;-67
2023/05/16 09:29:36;;;;;;;14.07;12.30;;;14.50;99.20;;;;;;5093508;28;20448;-67
2023/05/16 09:32:10;;;;;;;13.80;11.47;;;14.60;99.20;;;;;;5093158;28;20497;-67
2023/05/16 09:34:42;;;;;;;12.60;11.10;;;14.70;98.60;;;;;;5093418;28;20446;-67
2023/05/16 09:37:12;;;;;;;15.70;11.53;;;14.70;97.80;;;;;;5093016;28;20427;-67
2023/05/16 09:39:40;;;;;;;14.53;11.90;;;14.80;97.70;;;;;;5093363;28;20944;-67
2023/05/16 09:42:13;;;;;;;13.77;11.70;;;14.80;97.90;;;;;;5092730;28;20439;-67
2023/05/16 09:44:41;;;;;;;12.67;10.43;;;14.80;97.30;;;;;;5093001;28;20518;-68
2023/05/16 09:47:09;;;;;;;11.77;9.97;;;14.80;97.00;;;;;;5093077;28;20427;-67
2023/05/16 09:49:37;;;;;;;14.80;11.63;;;14.70;97.10;;;;;;5093679;28;20432;-67
2023/05/16 09:52:05;;;;;;;13.40;9.67;;;14.70;97.60;;;;;;5093149;28;20443;-67
2023/05/16 09:54:34;;;;;;;12.83;10.80;;;14.70;97.70;;;;;;5093470;28;20929;-67
2023/05/16 09:57:02;;;;;;;13.80;12.13;;;14.60;97.90;;;;;;5093149;28;20435;-68
2023/05/16 09:59:31;;;;;;;12.70;11.47;;;14.60;98.10;;;;;;5093261;28;20489;-67
2023/05/16 10:02:01;;;;;;;13.60;11.87;;;14.50;98.20;;;;;;5093232;28;20929;-67
2023/05/16 10:04:28;;;;;;;14.67;12.13;;;14.40;98.40;;;;;;5093489;28;20508;-67
2023/05/16 10:06:57;;;;;;;16.40;13.07;;;14.30;98.60;;;;;;5093387;28;20475;-67
2023/05/16 10:09:25;;;;;;;14.97;13.37;;;14.30;98.90;;;;;;5093141;28;20613;-67
2023/05/16 10:11:54;;;;;;;16.37;14.00;;;14.40;99.00;;;;;;5093225;28;20443;-67
2023/05/16 10:14:30;;;;;;;17.67;13.80;;;14.50;98.70;;;;;;5092750;28;20473;-67
2023/05/16 10:17:01;;;;;;;20.57;14.13;;;14.50;98.80;;;;;;5093203;28;20430;-67
2023/05/16 10:19:31;;;;;;;17.50;15.67;;;14.40;99.00;;;;;;5093223;28;20522;-67
2023/05/16 10:22:03;;;;;;;17.53;14.47;;;14.30;98.80;;;;;;5092818;28;20486;-67
2023/05/16 10:24:39;;;;;;;15.17;13.23;;;14.30;98.80;;;;;;5092723;28;20562;-67
2023/05/16 10:27:08;;;;;;;21.10;14.40;;;14.30;99.00;;;;;;5093018;28;20439;-67
2023/05/16 10:29:35;;;;;;;21.20;14.57;;;14.40;99.40;;;;;;5092756;28;20440;-67
2023/05/16 10:32:09;;;;;;;18.53;14.20;;;14.50;99.80;;;;;;5093464;28;20806;-67
2023/05/16 10:34:37;;;;;;;16.83;15.13;;;14.70;99.90;;;;;;5093076;28;20960;-67
2023/05/16 10:37:08;;;;;;;18.67;15.07;;;14.80;99.70;;;;;;5092287;28;20470;-67
2023/05/16 10:39:37;;;;;;;19.60;15.73;;;15.00;99.20;;;;;;5092882;28;20492;-68
2023/05/16 10:42:05;;;;;;;17.93;15.80;;;15.00;98.60;;;;;;5092922;28;20446;-67
2023/05/16 10:44:34;;;;;;;17.90;13.83;;;15.10;98.20;;;;;;5092720;28;20479;-67
2023/05/16 10:47:03;;;;;;;16.77;14.23;;;15.20;97.80;;;;;;5092775;28;20478;-67
2023/05/16 10:49:31;;;;;;;15.87;14.30;;;15.30;97.70;;;;;;5092944;28;20518;-67
2023/05/16 10:52:07;;;;;;;15.57;12.50;;;15.20;97.60;;;;;;5092972;28;20848;-67
2023/05/16 10:54:36;;;;;;;16.87;14.70;;;15.10;97.50;;;;;;5096910;28;20503;-67
2023/05/16 10:57:08;;;;;;;16.83;13.97;;;15.00;97.20;;;;;;5096915;28;20522;-67
2023/05/16 10:59:45;;;;;;;16.30;14.70;;;14.90;97.40;;;;;;5096833;28;20447;-68
2023/05/16 11:02:29;;;;;;;16.03;14.30;;;14.70;97.30;;;;;;5096622;28;20435;-67
2023/05/16 11:04:58;;;;;;;17.50;13.97;;;14.60;97.80;;;;;;5096326;28;20486;-66
2023/05/16 11:07:30;;;;;;;15.70;13.90;;;14.60;97.60;;;;;;5095816;28;20427;-67
2023/05/16 11:10:06;;;;;;;17.43;15.57;;;14.60;98.00;;;;;;5096831;28;20466;-67
2023/05/16 11:12:38;;;;;;;17.33;15.53;;;14.60;98.60;;;;;;5096358;28;20430;-67
2023/05/16 11:15:21;;;;;;;17.73;15.90;;;14.60;98.70;;;;;;5095665;28;20459;-67
2023/05/16 11:17:49;;;;;;;16.23;13.23;;;14.60;98.60;;;;;;5095811;28;20461;-67
2023/05/16 11:20:27;;;;;;;16.23;14.47;;;14.60;98.70;;;;;;5095086;28;20503;-67
2023/05/16 11:23:18;;;;;;;18.47;14.43;;;14.70;98.20;;;;;;5095697;28;20442;-67
2023/05/16 11:25:48;;;;;;;17.70;15.07;;;14.60;98.30;;;;;;5096476;28;20427;-67
2023/05/16 11:28:23;;;;;;;18.57;14.63;;;14.60;98.20;;;;;;5096247;28;20447;-67
2023/05/16 11:30:54;;;;;;;16.67;14.53;;;14.60;98.30;;;;;;5091565;28;20441;-67
2023/05/16 11:33:22;;;;;;;19.80;15.47;;;14.60;98.70;;;;;;5095140;28;20465;-67
2023/05/16 11:36:03;;;;;;;17.60;14.83;;;14.60;99.10;;;;;;5095402;28;20440;-67
2023/05/16 11:38:31;;;;;;;19.80;16.63;;;14.60;99.10;;;;;;5095551;28;20922;-67
2023/05/16 11:41:06;;;;;;;17.07;15.30;;;14.80;99.60;;;;;;5094571;28;20435;-67
2023/05/16 11:43:40;;;;;;;17.80;14.03;;;15.10;99.70;;;;;;5095053;28;20464;-67
2023/05/16 11:46:11;;;;;;;15.43;13.70;;;15.50;99.10;;;;;;5091615;28;20442;-67
2023/05/16 11:48:39;;;;;;;14.57;13.10;;;15.70;97.80;;;;;;5075301;28;20533;-67
2023/05/16 11:51:06;;;;;;;15.73;14.13;;;15.90;97.50;;;;;;5090516;28;20431;-67
2023/05/16 11:53:34;;;;;;;14.17;12.67;;;16.10;96.90;;;;;;5095662;28;20443;-67
2023/05/16 11:56:02;;;;;;;14.03;12.53;;;16.20;96.70;;;;;;5095970;28;20776;-67
2023/05/16 11:58:29;;;;;;;15.20;13.67;;;16.30;96.40;;;;;;5096024;28;20478;-67
2023/05/16 12:00:57;;;;;;;15.63;13.67;;;16.30;96.40;;;;;;5095923;28;20432;-67
2023/05/16 12:03:25;;;;;;;16.33;13.90;;;16.40;96.30;;;;;;5095160;28;20443;-67
2023/05/16 12:05:53;;;;;;;16.17;14.30;;;16.50;96.10;;;;;;5094833;28;20449;-67
2023/05/16 12:08:22;;;;;;;13.87;12.57;;;16.50;95.10;;;;;;5095255;28;20479;-67
2023/05/16 12:10:53;;;;;;;13.53;12.07;;;16.50;94.40;;;;;;5095500;28;20427;-67
2023/05/16 12:13:24;;;;;;;13.37;12.10;;;16.50;94.20;;;;;;5095573;28;20447;-67
2023/05/16 12:15:52;;;;;;;13.43;11.93;;;16.50;94.40;;;;;;5096427;28;20462;-67
2023/05/16 12:18:21;;;;;;;12.43;11.23;;;16.40;94.10;;;;;;5095275;28;20527;-67
2023/05/16 12:20:49;;;;;;;12.83;11.53;;;16.40;94.00;;;;;;5094753;28;20443;-67
2023/05/16 12:23:16;;;;;;;13.10;11.80;;;16.40;94.00;;;;;;5095264;28;20514;-67
2023/05/16 12:25:48;;;;;;;13.77;12.37;;;16.40;93.50;;;;;;5095130;28;20479;-67
2023/05/16 12:28:15;;;;;;;14.40;13.07;;;16.40;94.10;;;;;;5094866;28;20499;-67
2023/05/16 12:30:46;;;;;;;14.20;12.70;;;16.40;94.10;;;;;;5095140;28;20520;-67
2023/05/16 12:33:15;;;;;;;14.17;12.67;;;16.40;93.50;;;;;;5095070;28;20989;-67
2023/05/16 12:35:44;;;;;;;16.93;12.87;;;16.50;93.90;;;;;;5095176;28;20769;-67
2023/05/16 12:38:14;;;;;;;15.10;13.60;;;16.50;94.20;;;;;;5094477;28;20914;-67
2023/05/16 12:40:42;;;;;;;14.77;13.20;;;16.60;93.90;;;;;;5094731;28;20473;-67
2023/05/16 12:43:14;;;;;;;14.47;13.07;;;16.60;93.60;;;;;;5094879;28;20474;-67
2023/05/16 12:45:43;;;;;;;28.70;19.13;;;16.60;93.70;;;;;;5094602;28;20479;-68
2023/05/16 12:48:13;;;;;;;21.70;18.03;;;16.50;93.20;;;;;;5094680;28;20434;-68
2023/05/16 12:50:41;;;;;;;15.67;13.97;;;16.40;93.50;;;;;;5094543;28;20427;-67